Accueil
METAR-TAF:

METAR-TAF

Aéroports :

Accomack County Airport

Melfa, Virginie, États-Unis

latitude: 37-39N, longitude: 075-46W, altitude: 15 m

Observation

Le bulletin a été fait il y a 10 minutes, à 20:55 UTC
Vent 6 kt de nord-ouest
Température 10°C
Humidité 46%
Pression 1021 hPa
Visibilité: 16.1 km
Ciel couvert à une hauteur de 6500 ft

METAR: KMFV 192055Z AUTO 31006KT 10SM OVC065 10/M01 A3015 RMK AO2 T00961007

Heure: 16:05 (21:05 UTC)


TAF: absent

Observations et prévisions météorologiques de plus de 4000 aéroports (messages METAR et TAF).

Les stations disponibles sont représentées par des disques jaunes et rouges sur la carte.

Passer la souris dessus pour voir le nom de la station.

Cliquer dessus pour voir les observations et prévisions météorologiques.

Pour changer de carte: cliquez sur les boutons verts avec une croix noire pour zoomer, sur le bouton vert avec un tiret pour effectuer un zoom arrière, ou sur les flèches vertes pour les cartes adjacentes.


METAR-TAF: